Alamo, Tennessee
Current Conditions -  °F | °C
As of 3:53 PM on Thursday 18 Dec 2014 (Local Time) from KMKL Reporting Station
Overcast Overcast  
Wind Chill: 44°   Ceiling: 4300
Heat Index: 44°   Visibility: 10mi
Dew Point: 35°   Wind: 3mph
Humidity: 71%   Direction: 20°NNE
Pressure: 30.19"   Gusts: NA
Location:  35.78°N, 89.12°W
Report Text: KMKL 182153Z 02003KT 10SM OVC043 07/02 A3019 RMK AO2 SLP224 T00670017
Loading
Personal Weather Stations






























Interactive Weather Map New forecast layout! Learn more

10-Day Weather Forecast

Advertisements
Track Severe Weather on mobile